sensor_id;sensor_type;location;lat;lon;timestamp;P1;durP1;ratioP1;P2;durP2;ratioP2
39846;SDS011;25517;52.422;10.782;2023-07-20T00:00:01;3.05;;;1.88;;
39846;SDS011;25517;52.422;10.782;2023-07-20T00:02:27;4.65;;;2.40;;
39846;SDS011;25517;52.422;10.782;2023-07-20T00:04:52;2.05;;;1.77;;
39846;SDS011;25517;52.422;10.782;2023-07-20T00:07:18;3.17;;;2.17;;
39846;SDS011;25517;52.422;10.782;2023-07-20T00:09:43;3.97;;;2.42;;
39846;SDS011;25517;52.422;10.782;2023-07-20T00:12:09;4.47;;;2.03;;
39846;SDS011;25517;52.422;10.782;2023-07-20T00:14:34;2.50;;;1.95;;
39846;SDS011;25517;52.422;10.782;2023-07-20T00:17:00;3.25;;;2.15;;
39846;SDS011;25517;52.422;10.782;2023-07-20T00:19:27;2.17;;;2.00;;
39846;SDS011;25517;52.422;10.782;2023-07-20T00:21:53;2.42;;;2.22;;
39846;SDS011;25517;52.422;10.782;2023-07-20T00:24:20;3.80;;;2.15;;
39846;SDS011;25517;52.422;10.782;2023-07-20T00:26:45;2.70;;;2.50;;
39846;SDS011;25517;52.422;10.782;2023-07-20T00:29:11;3.58;;;2.10;;
39846;SDS011;25517;52.422;10.782;2023-07-20T00:31:37;1.98;;;1.77;;
39846;SDS011;25517;52.422;10.782;2023-07-20T00:34:03;3.47;;;2.20;;
39846;SDS011;25517;52.422;10.782;2023-07-20T00:36:29;2.22;;;2.03;;
39846;SDS011;25517;52.422;10.782;2023-07-20T00:38:54;2.58;;;2.20;;
39846;SDS011;25517;52.422;10.782;2023-07-20T00:41:20;2.00;;;1.80;;
39846;SDS011;25517;52.422;10.782;2023-07-20T00:43:46;2.63;;;1.98;;
39846;SDS011;25517;52.422;10.782;2023-07-20T00:46:11;3.03;;;2.55;;
39846;SDS011;25517;52.422;10.782;2023-07-20T00:48:38;4.22;;;1.98;;
39846;SDS011;25517;52.422;10.782;2023-07-20T00:51:04;2.00;;;1.80;;
39846;SDS011;25517;52.422;10.782;2023-07-20T00:53:30;6.22;;;2.13;;
39846;SDS011;25517;52.422;10.782;2023-07-20T00:55:55;3.20;;;2.15;;
39846;SDS011;25517;52.422;10.782;2023-07-20T00:58:22;2.10;;;2.00;;
39846;SDS011;25517;52.422;10.782;2023-07-20T01:00:48;3.97;;;1.98;;
39846;SDS011;25517;52.422;10.782;2023-07-20T01:03:14;2.72;;;2.22;;
39846;SDS011;25517;52.422;10.782;2023-07-20T01:08:35;6.45;;;2.63;;
39846;SDS011;25517;52.422;10.782;2023-07-20T01:11:16;4.30;;;2.45;;
39846;SDS011;25517;52.422;10.782;2023-07-20T01:13:56;2.50;;;2.30;;
39846;SDS011;25517;52.422;10.782;2023-07-20T01:16:22;2.75;;;1.70;;
39846;SDS011;25517;52.422;10.782;2023-07-20T01:18:49;2.65;;;2.20;;
39846;SDS011;25517;52.422;10.782;2023-07-20T01:21:18;2.78;;;2.30;;
39846;SDS011;25517;52.422;10.782;2023-07-20T01:24:19;2.53;;;2.33;;
39846;SDS011;25517;52.422;10.782;2023-07-20T01:32:02;3.05;;;2.60;;
39846;SDS011;25517;52.422;10.782;2023-07-20T01:34:32;2.80;;;2.53;;
39846;SDS011;25517;52.422;10.782;2023-07-20T01:37:00;6.50;;;2.85;;
39846;SDS011;25517;52.422;10.782;2023-07-20T01:39:26;4.00;;;2.53;;
39846;SDS011;25517;52.422;10.782;2023-07-20T01:41:52;5.00;;;2.70;;
39846;SDS011;25517;52.422;10.782;2023-07-20T01:44:18;6.35;;;2.40;;
39846;SDS011;25517;52.422;10.782;2023-07-20T01:46:43;2.33;;;2.13;;
39846;SDS011;25517;52.422;10.782;2023-07-20T01:49:09;3.65;;;2.38;;
39846;SDS011;25517;52.422;10.782;2023-07-20T01:51:34;3.42;;;2.42;;
39846;SDS011;25517;52.422;10.782;2023-07-20T01:54:00;2.60;;;2.10;;
39846;SDS011;25517;52.422;10.782;2023-07-20T01:56:26;3.65;;;2.30;;
39846;SDS011;25517;52.422;10.782;2023-07-20T01:58:51;2.47;;;2.22;;
39846;SDS011;25517;52.422;10.782;2023-07-20T02:01:17;2.72;;;2.53;;
39846;SDS011;25517;52.422;10.782;2023-07-20T02:03:42;4.07;;;2.70;;
39846;SDS011;25517;52.422;10.782;2023-07-20T02:06:08;3.15;;;2.33;;
39846;SDS011;25517;52.422;10.782;2023-07-20T02:08:33;2.80;;;2.40;;
39846;SDS011;25517;52.422;10.782;2023-07-20T02:10:59;2.63;;;2.33;;
39846;SDS011;25517;52.422;10.782;2023-07-20T02:13:24;3.17;;;2.88;;
39846;SDS011;25517;52.422;10.782;2023-07-20T02:15:50;5.63;;;2.53;;
39846;SDS011;25517;52.422;10.782;2023-07-20T02:18:16;3.38;;;2.55;;
39846;SDS011;25517;52.422;10.782;2023-07-20T02:20:41;3.13;;;2.15;;
39846;SDS011;25517;52.422;10.782;2023-07-20T02:23:07;3.95;;;2.28;;
39846;SDS011;25517;52.422;10.782;2023-07-20T02:25:32;3.50;;;2.92;;
39846;SDS011;25517;52.422;10.782;2023-07-20T02:27:58;2.50;;;2.30;;
39846;SDS011;25517;52.422;10.782;2023-07-20T02:30:24;3.03;;;2.20;;
39846;SDS011;25517;52.422;10.782;2023-07-20T02:32:49;2.60;;;2.25;;
39846;SDS011;25517;52.422;10.782;2023-07-20T02:35:15;2.53;;;2.30;;
39846;SDS011;25517;52.422;10.782;2023-07-20T02:37:41;2.50;;;2.30;;
39846;SDS011;25517;52.422;10.782;2023-07-20T02:40:07;4.68;;;2.65;;
39846;SDS011;25517;52.422;10.782;2023-07-20T02:42:33;5.35;;;2.67;;
39846;SDS011;25517;52.422;10.782;2023-07-20T02:44:59;2.35;;;2.05;;
39846;SDS011;25517;52.422;10.782;2023-07-20T02:47:24;3.25;;;2.38;;
39846;SDS011;25517;52.422;10.782;2023-07-20T02:49:50;2.70;;;2.20;;
39846;SDS011;25517;52.422;10.782;2023-07-20T02:52:16;3.75;;;2.78;;
39846;SDS011;25517;52.422;10.782;2023-07-20T02:54:41;3.95;;;3.00;;
39846;SDS011;25517;52.422;10.782;2023-07-20T02:57:07;2.47;;;2.28;;
39846;SDS011;25517;52.422;10.782;2023-07-20T02:59:32;2.58;;;2.38;;
39846;SDS011;25517;52.422;10.782;2023-07-20T03:01:58;3.13;;;2.45;;
39846;SDS011;25517;52.422;10.782;2023-07-20T03:04:25;2.83;;;2.40;;
39846;SDS011;25517;52.422;10.782;2023-07-20T03:06:51;3.17;;;2.60;;
39846;SDS011;25517;52.422;10.782;2023-07-20T03:09:17;3.55;;;2.40;;
39846;SDS011;25517;52.422;10.782;2023-07-20T03:11:42;2.50;;;2.30;;
39846;SDS011;25517;52.422;10.782;2023-07-20T03:14:08;4.10;;;2.40;;
39846;SDS011;25517;52.422;10.782;2023-07-20T03:16:35;3.88;;;3.03;;
39846;SDS011;25517;52.422;10.782;2023-07-20T03:19:01;2.60;;;2.40;;
39846;SDS011;25517;52.422;10.782;2023-07-20T03:21:26;3.90;;;2.17;;
39846;SDS011;25517;52.422;10.782;2023-07-20T03:23:52;3.72;;;2.15;;
39846;SDS011;25517;52.422;10.782;2023-07-20T03:26:17;2.28;;;2.08;;
39846;SDS011;25517;52.422;10.782;2023-07-20T03:28:43;5.32;;;2.20;;
39846;SDS011;25517;52.422;10.782;2023-07-20T03:31:08;2.30;;;2.20;;
39846;SDS011;25517;52.422;10.782;2023-07-20T03:33:34;2.30;;;2.10;;
39846;SDS011;25517;52.422;10.782;2023-07-20T03:36:00;3.78;;;2.60;;
39846;SDS011;25517;52.422;10.782;2023-07-20T03:38:26;2.38;;;2.17;;
39846;SDS011;25517;52.422;10.782;2023-07-20T03:40:55;4.30;;;1.98;;
39846;SDS011;25517;52.422;10.782;2023-07-20T03:43:22;2.20;;;2.00;;
39846;SDS011;25517;52.422;10.782;2023-07-20T03:45:49;2.00;;;1.88;;
39846;SDS011;25517;52.422;10.782;2023-07-20T03:48:15;2.42;;;2.08;;
39846;SDS011;25517;52.422;10.782;2023-07-20T03:50:42;2.33;;;2.08;;
39846;SDS011;25517;52.422;10.782;2023-07-20T03:53:09;2.83;;;2.00;;
39846;SDS011;25517;52.422;10.782;2023-07-20T03:55:34;2.58;;;2.10;;
39846;SDS011;25517;52.422;10.782;2023-07-20T03:58:00;4.68;;;2.45;;
39846;SDS011;25517;52.422;10.782;2023-07-20T04:00:26;3.33;;;1.90;;
39846;SDS011;25517;52.422;10.782;2023-07-20T04:02:52;3.38;;;2.13;;
39846;SDS011;25517;52.422;10.782;2023-07-20T04:05:17;3.58;;;2.10;;
39846;SDS011;25517;52.422;10.782;2023-07-20T04:07:43;3.45;;;2.17;;
39846;SDS011;25517;52.422;10.782;2023-07-20T04:10:09;1.75;;;1.65;;
39846;SDS011;25517;52.422;10.782;2023-07-20T04:12:35;2.35;;;2.15;;
39846;SDS011;25517;52.422;10.782;2023-07-20T04:15:00;1.80;;;1.70;;
39846;SDS011;25517;52.422;10.782;2023-07-20T04:17:28;1.70;;;1.60;;
39846;SDS011;25517;52.422;10.782;2023-07-20T04:19:53;2.30;;;1.75;;
39846;SDS011;25517;52.422;10.782;2023-07-20T04:22:19;2.40;;;2.20;;
39846;SDS011;25517;52.422;10.782;2023-07-20T04:24:44;2.90;;;1.77;;
39846;SDS011;25517;52.422;10.782;2023-07-20T04:27:10;2.40;;;1.63;;
39846;SDS011;25517;52.422;10.782;2023-07-20T04:29:35;3.70;;;2.05;;
39846;SDS011;25517;52.422;10.782;2023-07-20T04:32:01;2.45;;;2.10;;
39846;SDS011;25517;52.422;10.782;2023-07-20T04:34:27;1.90;;;1.70;;
39846;SDS011;25517;52.422;10.782;2023-07-20T04:36:52;1.75;;;1.63;;
39846;SDS011;25517;52.422;10.782;2023-07-20T04:39:18;2.33;;;1.83;;
39846;SDS011;25517;52.422;10.782;2023-07-20T04:41:43;2.65;;;1.95;;
39846;SDS011;25517;52.422;10.782;2023-07-20T04:44:09;1.80;;;1.70;;
39846;SDS011;25517;52.422;10.782;2023-07-20T04:46:34;3.35;;;1.60;;
39846;SDS011;25517;52.422;10.782;2023-07-20T04:49:00;2.17;;;1.80;;
39846;SDS011;25517;52.422;10.782;2023-07-20T04:51:26;1.70;;;1.60;;
39846;SDS011;25517;52.422;10.782;2023-07-20T04:53:52;2.10;;;1.55;;
39846;SDS011;25517;52.422;10.782;2023-07-20T04:56:17;3.20;;;1.83;;
39846;SDS011;25517;52.422;10.782;2023-07-20T04:58:43;3.35;;;1.70;;
39846;SDS011;25517;52.422;10.782;2023-07-20T05:01:08;3.42;;;1.90;;
39846;SDS011;25517;52.422;10.782;2023-07-20T05:03:34;2.55;;;1.85;;
39846;SDS011;25517;52.422;10.782;2023-07-20T05:05:59;2.50;;;1.73;;
39846;SDS011;25517;52.422;10.782;2023-07-20T05:08:25;1.92;;;1.73;;
39846;SDS011;25517;52.422;10.782;2023-07-20T05:10:50;3.88;;;1.73;;
39846;SDS011;25517;52.422;10.782;2023-07-20T05:13:16;2.85;;;2.00;;
39846;SDS011;25517;52.422;10.782;2023-07-20T05:15:41;2.03;;;1.63;;
39846;SDS011;25517;52.422;10.782;2023-07-20T05:18:07;2.90;;;1.65;;
39846;SDS011;25517;52.422;10.782;2023-07-20T05:20:34;2.60;;;1.92;;
39846;SDS011;25517;52.422;10.782;2023-07-20T05:23:00;2.78;;;1.77;;
39846;SDS011;25517;52.422;10.782;2023-07-20T05:25:26;3.58;;;1.52;;
39846;SDS011;25517;52.422;10.782;2023-07-20T05:27:51;2.03;;;1.58;;
39846;SDS011;25517;52.422;10.782;2023-07-20T05:30:17;1.50;;;1.40;;
39846;SDS011;25517;52.422;10.782;2023-07-20T05:32:43;4.32;;;1.98;;
39846;SDS011;25517;52.422;10.782;2023-07-20T05:35:12;3.08;;;2.00;;
39846;SDS011;25517;52.422;10.782;2023-07-20T05:37:39;2.75;;;1.55;;
39846;SDS011;25517;52.422;10.782;2023-07-20T05:40:05;1.73;;;1.52;;
39846;SDS011;25517;52.422;10.782;2023-07-20T05:42:32;2.42;;;1.90;;
39846;SDS011;25517;52.422;10.782;2023-07-20T05:44:58;2.42;;;1.58;;
39846;SDS011;25517;52.422;10.782;2023-07-20T05:47:23;2.60;;;1.95;;
39846;SDS011;25517;52.422;10.782;2023-07-20T05:49:49;2.42;;;1.52;;
39846;SDS011;25517;52.422;10.782;2023-07-20T05:52:14;2.05;;;1.75;;
39846;SDS011;25517;52.422;10.782;2023-07-20T05:54:40;4.80;;;2.28;;
39846;SDS011;25517;52.422;10.782;2023-07-20T05:57:06;2.75;;;2.45;;
39846;SDS011;25517;52.422;10.782;2023-07-20T05:59:31;2.03;;;1.77;;
39846;SDS011;25517;52.422;10.782;2023-07-20T06:01:57;7.55;;;2.60;;
39846;SDS011;25517;52.422;10.782;2023-07-20T06:04:22;5.10;;;2.17;;
39846;SDS011;25517;52.422;10.782;2023-07-20T06:06:48;2.38;;;1.92;;
39846;SDS011;25517;52.422;10.782;2023-07-20T06:09:14;4.03;;;1.83;;
39846;SDS011;25517;52.422;10.782;2023-07-20T06:11:40;4.03;;;2.53;;
39846;SDS011;25517;52.422;10.782;2023-07-20T06:14:06;2.90;;;1.90;;
39846;SDS011;25517;52.422;10.782;2023-07-20T06:16:31;2.85;;;2.00;;
39846;SDS011;25517;52.422;10.782;2023-07-20T06:18:58;3.08;;;2.00;;
39846;SDS011;25517;52.422;10.782;2023-07-20T06:21:25;4.18;;;2.25;;
39846;SDS011;25517;52.422;10.782;2023-07-20T06:23:50;3.55;;;2.10;;
39846;SDS011;25517;52.422;10.782;2023-07-20T06:26:16;2.60;;;2.20;;
39846;SDS011;25517;52.422;10.782;2023-07-20T06:28:41;2.75;;;2.55;;
39846;SDS011;25517;52.422;10.782;2023-07-20T06:31:07;3.00;;;2.33;;
39846;SDS011;25517;52.422;10.782;2023-07-20T06:33:33;2.40;;;2.20;;
39846;SDS011;25517;52.422;10.782;2023-07-20T06:35:59;3.28;;;2.72;;
39846;SDS011;25517;52.422;10.782;2023-07-20T06:38:25;3.70;;;3.00;;
39846;SDS011;25517;52.422;10.782;2023-07-20T06:40:51;2.78;;;2.55;;
39846;SDS011;25517;52.422;10.782;2023-07-20T06:43:16;4.95;;;3.95;;
39846;SDS011;25517;52.422;10.782;2023-07-20T06:45:42;5.07;;;3.70;;
39846;SDS011;25517;52.422;10.782;2023-07-20T06:48:08;5.13;;;4.35;;
39846;SDS011;25517;52.422;10.782;2023-07-20T06:50:33;5.20;;;3.78;;
39846;SDS011;25517;52.422;10.782;2023-07-20T06:52:59;4.78;;;4.10;;
39846;SDS011;25517;52.422;10.782;2023-07-20T06:55:25;4.00;;;3.35;;
39846;SDS011;25517;52.422;10.782;2023-07-20T06:57:51;4.30;;;3.63;;
39846;SDS011;25517;52.422;10.782;2023-07-20T07:00:17;4.28;;;3.65;;
39846;SDS011;25517;52.422;10.782;2023-07-20T07:02:42;5.80;;;3.50;;
39846;SDS011;25517;52.422;10.782;2023-07-20T07:05:08;2.65;;;2.40;;
39846;SDS011;25517;52.422;10.782;2023-07-20T07:07:34;3.83;;;2.75;;
39846;SDS011;25517;52.422;10.782;2023-07-20T07:09:59;3.58;;;1.98;;
39846;SDS011;25517;52.422;10.782;2023-07-20T07:12:25;5.47;;;1.80;;
39846;SDS011;25517;52.422;10.782;2023-07-20T07:14:51;1.95;;;1.52;;
39846;SDS011;25517;52.422;10.782;2023-07-20T07:17:17;1.58;;;1.48;;
39846;SDS011;25517;52.422;10.782;2023-07-20T07:19:43;4.57;;;1.63;;
39846;SDS011;25517;52.422;10.782;2023-07-20T07:22:09;2.47;;;1.27;;
39846;SDS011;25517;52.422;10.782;2023-07-20T07:24:35;1.42;;;1.20;;
39846;SDS011;25517;52.422;10.782;2023-07-20T07:27:01;3.17;;;1.23;;
39846;SDS011;25517;52.422;10.782;2023-07-20T07:29:27;1.95;;;1.17;;
39846;SDS011;25517;52.422;10.782;2023-07-20T07:31:52;2.72;;;0.80;;
39846;SDS011;25517;52.422;10.782;2023-07-20T07:34:18;1.20;;;0.80;;
39846;SDS011;25517;52.422;10.782;2023-07-20T07:36:44;3.05;;;1.00;;
39846;SDS011;25517;52.422;10.782;2023-07-20T07:39:10;1.95;;;0.90;;
39846;SDS011;25517;52.422;10.782;2023-07-20T07:41:36;1.05;;;0.70;;
39846;SDS011;25517;52.422;10.782;2023-07-20T07:44:01;1.88;;;0.90;;
39846;SDS011;25517;52.422;10.782;2023-07-20T07:46:27;0.60;;;0.60;;
39846;SDS011;25517;52.422;10.782;2023-07-20T07:48:52;1.20;;;0.85;;
39846;SDS011;25517;52.422;10.782;2023-07-20T07:51:18;0.70;;;0.60;;
39846;SDS011;25517;52.422;10.782;2023-07-20T07:53:44;1.30;;;0.88;;
39846;SDS011;25517;52.422;10.782;2023-07-20T07:56:10;1.70;;;0.88;;
39846;SDS011;25517;52.422;10.782;2023-07-20T07:58:36;0.70;;;0.70;;
39846;SDS011;25517;52.422;10.782;2023-07-20T08:01:02;1.77;;;0.60;;
39846;SDS011;25517;52.422;10.782;2023-07-20T08:03:27;1.45;;;0.88;;
39846;SDS011;25517;52.422;10.782;2023-07-20T08:05:54;0.60;;;0.52;;
39846;SDS011;25517;52.422;10.782;2023-07-20T08:08:24;0.77;;;0.60;;
39846;SDS011;25517;52.422;10.782;2023-07-20T08:10:52;1.20;;;0.57;;
39846;SDS011;25517;52.422;10.782;2023-07-20T08:13:19;1.20;;;0.60;;
39846;SDS011;25517;52.422;10.782;2023-07-20T08:15:45;0.70;;;0.55;;
39846;SDS011;25517;52.422;10.782;2023-07-20T08:18:14;0.75;;;0.55;;
39846;SDS011;25517;52.422;10.782;2023-07-20T08:20:39;2.35;;;0.80;;
39846;SDS011;25517;52.422;10.782;2023-07-20T08:23:08;0.70;;;0.60;;
39846;SDS011;25517;52.422;10.782;2023-07-20T08:25:35;0.90;;;0.52;;
39846;SDS011;25517;52.422;10.782;2023-07-20T08:28:04;2.00;;;0.80;;
39846;SDS011;25517;52.422;10.782;2023-07-20T08:30:38;0.80;;;0.70;;
39846;SDS011;25517;52.422;10.782;2023-07-20T08:33:15;0.50;;;0.50;;
39846;SDS011;25517;52.422;10.782;2023-07-20T08:35:44;0.38;;;0.38;;
39846;SDS011;25517;52.422;10.782;2023-07-20T08:38:10;3.55;;;0.52;;
39846;SDS011;25517;52.422;10.782;2023-07-20T08:40:43;0.55;;;0.50;;
39846;SDS011;25517;52.422;10.782;2023-07-20T08:43:10;0.75;;;0.47;;
39846;SDS011;25517;52.422;10.782;2023-07-20T08:45:38;1.23;;;0.85;;
39846;SDS011;25517;52.422;10.782;2023-07-20T08:48:05;1.17;;;0.63;;
39846;SDS011;25517;52.422;10.782;2023-07-20T08:50:31;0.50;;;0.50;;
39846;SDS011;25517;52.422;10.782;2023-07-20T08:52:58;1.13;;;0.60;;
39846;SDS011;25517;52.422;10.782;2023-07-20T08:55:26;2.35;;;0.60;;
39846;SDS011;25517;52.422;10.782;2023-07-20T08:57:53;1.08;;;0.90;;
39846;SDS011;25517;52.422;10.782;2023-07-20T09:00:20;0.88;;;0.65;;
39846;SDS011;25517;52.422;10.782;2023-07-20T09:02:47;0.60;;;0.60;;
39846;SDS011;25517;52.422;10.782;2023-07-20T09:05:15;1.53;;;0.50;;
39846;SDS011;25517;52.422;10.782;2023-07-20T09:07:41;0.55;;;0.47;;
39846;SDS011;25517;52.422;10.782;2023-07-20T09:10:07;1.38;;;0.50;;
39846;SDS011;25517;52.422;10.782;2023-07-20T09:12:39;2.03;;;0.65;;
39846;SDS011;25517;52.422;10.782;2023-07-20T09:15:06;1.73;;;1.02;;
39846;SDS011;25517;52.422;10.782;2023-07-20T09:17:32;0.93;;;0.70;;
39846;SDS011;25517;52.422;10.782;2023-07-20T09:19:58;1.42;;;0.70;;
39846;SDS011;25517;52.422;10.782;2023-07-20T09:22:32;3.05;;;0.70;;
39846;SDS011;25517;52.422;10.782;2023-07-20T09:24:58;1.30;;;0.60;;
39846;SDS011;25517;52.422;10.782;2023-07-20T09:27:37;0.98;;;0.77;;
39846;SDS011;25517;52.422;10.782;2023-07-20T09:30:04;3.65;;;0.77;;
39846;SDS011;25517;52.422;10.782;2023-07-20T09:32:34;1.30;;;1.00;;
39846;SDS011;25517;52.422;10.782;2023-07-20T09:35:04;3.67;;;0.70;;
39846;SDS011;25517;52.422;10.782;2023-07-20T09:37:30;1.65;;;0.60;;
39846;SDS011;25517;52.422;10.782;2023-07-20T09:39:58;2.80;;;0.63;;
39846;SDS011;25517;52.422;10.782;2023-07-20T09:42:24;1.33;;;0.60;;
39846;SDS011;25517;52.422;10.782;2023-07-20T09:44:50;0.85;;;0.40;;
39846;SDS011;25517;52.422;10.782;2023-07-20T09:47:22;1.10;;;0.50;;
39846;SDS011;25517;52.422;10.782;2023-07-20T09:49:48;0.75;;;0.47;;
39846;SDS011;25517;52.422;10.782;2023-07-20T09:52:14;1.10;;;0.60;;
39846;SDS011;25517;52.422;10.782;2023-07-20T09:54:40;1.02;;;0.40;;
39846;SDS011;25517;52.422;10.782;2023-07-20T09:59:38;0.50;;;0.43;;
39846;SDS011;25517;52.422;10.782;2023-07-20T10:02:05;1.05;;;0.68;;
39846;SDS011;25517;52.422;10.782;2023-07-20T10:04:41;1.33;;;0.60;;
39846;SDS011;25517;52.422;10.782;2023-07-20T10:07:09;0.70;;;0.60;;
39846;SDS011;25517;52.422;10.782;2023-07-20T10:09:39;0.95;;;0.60;;
39846;SDS011;25517;52.422;10.782;2023-07-20T10:12:07;1.13;;;0.60;;
39846;SDS011;25517;52.422;10.782;2023-07-20T10:14:35;2.47;;;0.77;;
39846;SDS011;25517;52.422;10.782;2023-07-20T10:17:07;0.60;;;0.50;;
39846;SDS011;25517;52.422;10.782;2023-07-20T10:19:43;0.77;;;0.60;;
39846;SDS011;25517;52.422;10.782;2023-07-20T10:22:14;0.55;;;0.55;;
39846;SDS011;25517;52.422;10.782;2023-07-20T10:27:10;1.73;;;0.50;;
39846;SDS011;25517;52.422;10.782;2023-07-20T10:29:36;0.32;;;0.32;;
39846;SDS011;25517;52.422;10.782;2023-07-20T10:32:03;1.25;;;0.50;;
39846;SDS011;25517;52.422;10.782;2023-07-20T10:34:29;1.02;;;0.52;;
39846;SDS011;25517;52.422;10.782;2023-07-20T10:36:55;0.60;;;0.50;;
39846;SDS011;25517;52.422;10.782;2023-07-20T10:39:27;0.43;;;0.30;;
39846;SDS011;25517;52.422;10.782;2023-07-20T10:42:08;1.55;;;0.52;;
39846;SDS011;25517;52.422;10.782;2023-07-20T10:44:38;0.50;;;0.45;;
39846;SDS011;25517;52.422;10.782;2023-07-20T10:47:11;0.40;;;0.40;;
39846;SDS011;25517;52.422;10.782;2023-07-20T10:52:22;1.10;;;0.60;;
39846;SDS011;25517;52.422;10.782;2023-07-20T10:54:48;2.38;;;0.60;;
39846;SDS011;25517;52.422;10.782;2023-07-20T10:59:50;0.50;;;0.50;;
39846;SDS011;25517;52.422;10.782;2023-07-20T11:02:17;1.48;;;0.40;;
39846;SDS011;25517;52.422;10.782;2023-07-20T11:04:45;1.73;;;0.55;;
39846;SDS011;25517;52.422;10.782;2023-07-20T11:07:15;1.48;;;0.70;;
39846;SDS011;25517;52.422;10.782;2023-07-20T11:09:42;0.75;;;0.75;;
39846;SDS011;25517;52.422;10.782;2023-07-20T11:12:11;1.38;;;1.00;;
39846;SDS011;25517;52.422;10.782;2023-07-20T11:14:56;1.33;;;0.60;;
39846;SDS011;25517;52.422;10.782;2023-07-20T11:17:31;0.70;;;0.52;;
39846;SDS011;25517;52.422;10.782;2023-07-20T11:20:01;0.40;;;0.40;;
39846;SDS011;25517;52.422;10.782;2023-07-20T11:22:27;0.70;;;0.60;;
39846;SDS011;25517;52.422;10.782;2023-07-20T11:24:55;1.05;;;0.50;;
39846;SDS011;25517;52.422;10.782;2023-07-20T11:27:21;0.82;;;0.60;;
39846;SDS011;25517;52.422;10.782;2023-07-20T11:29:47;2.30;;;0.60;;
39846;SDS011;25517;52.422;10.782;2023-07-20T11:32:20;0.85;;;0.45;;
39846;SDS011;25517;52.422;10.782;2023-07-20T11:34:47;0.60;;;0.50;;
39846;SDS011;25517;52.422;10.782;2023-07-20T11:37:13;1.05;;;0.65;;
39846;SDS011;25517;52.422;10.782;2023-07-20T11:39:38;1.02;;;0.80;;
39846;SDS011;25517;52.422;10.782;2023-07-20T11:42:04;1.45;;;0.73;;
39846;SDS011;25517;52.422;10.782;2023-07-20T11:44:31;2.80;;;0.70;;
39846;SDS011;25517;52.422;10.782;2023-07-20T11:49:28;1.27;;;0.50;;
39846;SDS011;25517;52.422;10.782;2023-07-20T11:51:53;1.00;;;0.70;;
39846;SDS011;25517;52.422;10.782;2023-07-20T11:54:20;0.73;;;0.55;;
39846;SDS011;25517;52.422;10.782;2023-07-20T11:56:46;1.48;;;0.75;;
39846;SDS011;25517;52.422;10.782;2023-07-20T11:59:11;1.35;;;0.70;;
39846;SDS011;25517;52.422;10.782;2023-07-20T12:01:36;1.60;;;0.63;;
39846;SDS011;25517;52.422;10.782;2023-07-20T12:04:03;1.38;;;0.82;;
39846;SDS011;25517;52.422;10.782;2023-07-20T12:06:28;1.35;;;0.60;;
39846;SDS011;25517;52.422;10.782;2023-07-20T12:08:56;0.70;;;0.70;;
39846;SDS011;25517;52.422;10.782;2023-07-20T12:11:35;1.48;;;0.75;;
39846;SDS011;25517;52.422;10.782;2023-07-20T12:14:06;2.00;;;0.80;;
39846;SDS011;25517;52.422;10.782;2023-07-20T12:16:32;1.90;;;0.82;;
39846;SDS011;25517;52.422;10.782;2023-07-20T12:19:01;1.77;;;0.80;;
39846;SDS011;25517;52.422;10.782;2023-07-20T12:21:31;1.75;;;0.80;;
39846;SDS011;25517;52.422;10.782;2023-07-20T12:23:58;1.25;;;0.60;;
39846;SDS011;25517;52.422;10.782;2023-07-20T12:26:24;0.55;;;0.50;;
39846;SDS011;25517;52.422;10.782;2023-07-20T12:28:51;1.02;;;0.75;;
39846;SDS011;25517;52.422;10.782;2023-07-20T12:31:17;1.15;;;0.80;;
39846;SDS011;25517;52.422;10.782;2023-07-20T12:33:43;1.23;;;0.60;;
39846;SDS011;25517;52.422;10.782;2023-07-20T12:36:08;2.03;;;1.20;;
39846;SDS011;25517;52.422;10.782;2023-07-20T12:38:35;1.60;;;0.90;;
39846;SDS011;25517;52.422;10.782;2023-07-20T12:41:01;0.75;;;0.52;;
39846;SDS011;25517;52.422;10.782;2023-07-20T12:43:27;1.73;;;0.90;;
39846;SDS011;25517;52.422;10.782;2023-07-20T12:45:53;2.35;;;0.70;;
39846;SDS011;25517;52.422;10.782;2023-07-20T12:48:19;2.78;;;0.88;;
39846;SDS011;25517;52.422;10.782;2023-07-20T12:50:45;5.47;;;1.13;;
39846;SDS011;25517;52.422;10.782;2023-07-20T12:53:11;1.15;;;0.80;;
39846;SDS011;25517;52.422;10.782;2023-07-20T12:55:37;2.42;;;0.82;;
39846;SDS011;25517;52.422;10.782;2023-07-20T12:58:03;3.15;;;1.00;;
39846;SDS011;25517;52.422;10.782;2023-07-20T13:00:29;1.85;;;0.80;;
39846;SDS011;25517;52.422;10.782;2023-07-20T13:02:55;1.23;;;0.98;;
39846;SDS011;25517;52.422;10.782;2023-07-20T13:05:20;1.80;;;1.23;;
39846;SDS011;25517;52.422;10.782;2023-07-20T13:07:46;2.97;;;1.02;;
39846;SDS011;25517;52.422;10.782;2023-07-20T13:10:11;2.80;;;0.98;;
39846;SDS011;25517;52.422;10.782;2023-07-20T13:12:37;1.30;;;0.82;;
39846;SDS011;25517;52.422;10.782;2023-07-20T13:15:04;3.80;;;0.90;;
39846;SDS011;25517;52.422;10.782;2023-07-20T13:17:32;1.70;;;1.10;;
39846;SDS011;25517;52.422;10.782;2023-07-20T13:19:58;1.10;;;1.00;;
39846;SDS011;25517;52.422;10.782;2023-07-20T13:22:23;1.38;;;0.90;;
39846;SDS011;25517;52.422;10.782;2023-07-20T13:24:49;1.35;;;0.90;;
39846;SDS011;25517;52.422;10.782;2023-07-20T13:27:19;2.80;;;1.10;;
39846;SDS011;25517;52.422;10.782;2023-07-20T13:29:45;1.10;;;1.00;;
39846;SDS011;25517;52.422;10.782;2023-07-20T13:32:13;1.98;;;1.00;;
39846;SDS011;25517;52.422;10.782;2023-07-20T13:34:43;2.65;;;1.15;;
39846;SDS011;25517;52.422;10.782;2023-07-20T13:37:09;2.63;;;0.90;;
39846;SDS011;25517;52.422;10.782;2023-07-20T13:39:36;2.35;;;1.00;;
39846;SDS011;25517;52.422;10.782;2023-07-20T13:42:01;1.05;;;0.88;;
39846;SDS011;25517;52.422;10.782;2023-07-20T13:44:29;0.98;;;0.88;;
39846;SDS011;25517;52.422;10.782;2023-07-20T13:46:58;1.80;;;1.05;;
39846;SDS011;25517;52.422;10.782;2023-07-20T13:49:24;2.33;;;0.85;;
39846;SDS011;25517;52.422;10.782;2023-07-20T13:51:49;1.27;;;0.77;;
39846;SDS011;25517;52.422;10.782;2023-07-20T13:54:15;0.98;;;0.85;;
39846;SDS011;25517;52.422;10.782;2023-07-20T13:56:40;1.38;;;0.88;;
39846;SDS011;25517;52.422;10.782;2023-07-20T13:59:06;1.85;;;1.10;;
39846;SDS011;25517;52.422;10.782;2023-07-20T14:01:32;1.05;;;0.77;;
39846;SDS011;25517;52.422;10.782;2023-07-20T14:04:01;1.75;;;0.90;;
39846;SDS011;25517;52.422;10.782;2023-07-20T14:06:31;1.60;;;1.10;;
39846;SDS011;25517;52.422;10.782;2023-07-20T14:08:58;1.55;;;0.90;;
39846;SDS011;25517;52.422;10.782;2023-07-20T14:11:24;1.50;;;1.15;;
39846;SDS011;25517;52.422;10.782;2023-07-20T14:13:50;2.50;;;1.00;;
39846;SDS011;25517;52.422;10.782;2023-07-20T14:16:17;2.38;;;1.10;;
39846;SDS011;25517;52.422;10.782;2023-07-20T14:18:43;2.15;;;1.13;;
39846;SDS011;25517;52.422;10.782;2023-07-20T14:21:12;2.03;;;1.15;;
39846;SDS011;25517;52.422;10.782;2023-07-20T14:23:37;2.15;;;1.02;;
39846;SDS011;25517;52.422;10.782;2023-07-20T14:26:03;3.10;;;0.75;;
39846;SDS011;25517;52.422;10.782;2023-07-20T14:30:59;4.35;;;1.00;;
39846;SDS011;25517;52.422;10.782;2023-07-20T14:33:25;2.65;;;1.10;;
39846;SDS011;25517;52.422;10.782;2023-07-20T14:35:50;0.88;;;0.88;;
39846;SDS011;25517;52.422;10.782;2023-07-20T14:38:16;1.85;;;0.90;;
39846;SDS011;25517;52.422;10.782;2023-07-20T14:40:41;5.57;;;1.23;;
39846;SDS011;25517;52.422;10.782;2023-07-20T14:43:07;0.80;;;0.80;;
39846;SDS011;25517;52.422;10.782;2023-07-20T14:45:33;1.85;;;0.90;;
39846;SDS011;25517;52.422;10.782;2023-07-20T14:47:58;2.20;;;1.13;;
39846;SDS011;25517;52.422;10.782;2023-07-20T14:50:24;3.78;;;1.40;;
39846;SDS011;25517;52.422;10.782;2023-07-20T14:52:50;1.40;;;1.15;;